Time;durP1;ratioP1;P1;durP2;ratioP2;P2;SDS_P1;SDS_P2;PMS_P1;PMS_P2;Temp;Humidity;BMP_temperature;BMP_pressure;BME280_temperature;BME280_humidity;BME280_pressure;Samples;Min_cycle;Max_cycle;Signal;HPM_P1;HPM_P2
2022/09/28 00:00:06;;;;;;;10.23;7.90;;;8.20;99.90;;;;;;5088663;28;20191;-46
2022/09/28 00:02:32;;;;;;;13.33;8.10;;;8.10;99.90;;;;;;5090592;28;20912;-46
2022/09/28 00:04:57;;;;;;;12.67;8.87;;;8.10;99.90;;;;;;5090005;28;20423;-46
2022/09/28 00:07:23;;;;;;;12.83;8.37;;;8.20;99.90;;;;;;5088300;28;20431;-47
2022/09/28 00:09:48;;;;;;;12.87;8.67;;;8.10;99.90;;;;;;5090060;28;20209;-46
2022/09/28 00:12:14;;;;;;;11.73;8.17;;;8.10;99.90;;;;;;5090320;28;20643;-46
2022/09/28 00:14:41;;;;;;;11.37;8.27;;;8.10;99.90;;;;;;5087026;28;20552;-46
2022/09/28 00:17:07;;;;;;;13.10;9.07;;;8.10;99.90;;;;;;5089354;28;20196;-46
2022/09/28 00:19:33;;;;;;;15.73;9.20;;;8.10;99.90;;;;;;5089534;28;20772;-46
2022/09/28 00:21:58;;;;;;;14.47;9.10;;;8.10;99.90;;;;;;5091432;28;21041;-46
2022/09/28 00:24:24;;;;;;;12.53;8.60;;;8.00;99.90;;;;;;5090789;28;20204;-46
2022/09/28 00:26:52;;;;;;;11.50;9.00;;;8.00;99.90;;;;;;5089377;28;20659;-46
2022/09/28 00:29:27;;;;;;;14.33;9.53;;;8.00;99.90;;;;;;5089563;28;20204;-46
2022/09/28 00:31:59;;;;;;;12.97;8.60;;;8.00;99.90;;;;;;5087764;28;20439;-46
2022/09/28 00:34:26;;;;;;;13.53;9.60;;;8.00;99.90;;;;;;5089308;28;20450;-47
2022/09/28 00:36:51;;;;;;;11.90;8.40;;;8.00;99.90;;;;;;5089917;28;20450;-46
2022/09/28 00:39:17;;;;;;;14.67;9.53;;;8.00;99.90;;;;;;5089949;28;20470;-46
2022/09/28 00:41:44;;;;;;;10.47;7.93;;;8.00;99.90;;;;;;5090515;28;20700;-46
2022/09/28 00:44:38;;;;;;;13.30;8.90;;;7.90;99.90;;;;;;5090425;28;20185;-46
2022/09/28 00:47:16;;;;;;;11.10;8.40;;;7.90;99.90;;;;;;5090020;28;20411;-46
2022/09/28 00:49:59;;;;;;;12.50;9.60;;;7.90;99.90;;;;;;5091563;28;20456;-45
2022/09/28 00:52:52;;;;;;;10.60;9.17;;;7.80;99.90;;;;;;5093026;28;20460;-46
2022/09/28 00:55:24;;;;;;;11.13;7.40;;;7.90;99.90;;;;;;5093261;28;20418;-46
2022/09/28 00:57:55;;;;;;;10.90;7.73;;;7.90;99.90;;;;;;5093412;28;20459;-46
2022/09/28 01:00:21;;;;;;;11.67;8.23;;;7.90;99.90;;;;;;5093325;28;20438;-46
2022/09/28 01:02:47;;;;;;;11.00;8.57;;;7.80;99.90;;;;;;5094010;28;20399;-46
2022/09/28 01:05:13;;;;;;;13.30;8.10;;;7.80;99.90;;;;;;5092630;28;20431;-46
2022/09/28 01:07:40;;;;;;;13.83;9.03;;;7.80;99.90;;;;;;5093429;28;20189;-46
2022/09/28 01:10:06;;;;;;;12.63;9.37;;;7.70;99.90;;;;;;5089706;28;20534;-46
2022/09/28 01:12:32;;;;;;;16.80;9.90;;;7.60;99.90;;;;;;5093461;28;20422;-46
2022/09/28 01:14:59;;;;;;;11.80;8.80;;;7.60;99.90;;;;;;5091307;28;20427;-46
2022/09/28 01:17:36;;;;;;;11.30;9.20;;;7.60;99.90;;;;;;5092337;28;20219;-46
2022/09/28 01:20:11;;;;;;;15.00;9.13;;;7.60;99.90;;;;;;5092451;28;21975;-46
2022/09/28 01:23:19;;;;;;;13.73;8.93;;;7.60;99.90;;;;;;5093709;28;20411;-46
2022/09/28 01:25:57;;;;;;;14.50;9.73;;;7.60;99.90;;;;;;5082609;28;20431;-51
2022/09/28 01:28:28;;;;;;;12.70;9.07;;;7.50;99.90;;;;;;5089714;28;20484;-46
2022/09/28 01:31:14;;;;;;;12.30;9.37;;;7.50;99.90;;;;;;5091724;28;20431;-46
2022/09/28 01:33:59;;;;;;;10.83;8.77;;;7.50;99.90;;;;;;5091921;28;20816;-46
2022/09/28 01:36:42;;;;;;;14.93;9.37;;;7.40;99.90;;;;;;5092170;28;20535;-45
2022/09/28 01:39:13;;;;;;;12.40;9.60;;;7.30;99.90;;;;;;5093180;28;20462;-46
2022/09/28 01:41:41;;;;;;;11.40;8.97;;;7.30;99.90;;;;;;5093451;28;20407;-46
2022/09/28 01:44:13;;;;;;;14.03;8.97;;;7.30;99.90;;;;;;5091292;28;20499;-46
2022/09/28 01:46:45;;;;;;;11.33;8.50;;;7.30;99.90;;;;;;5092370;28;20404;-46
2022/09/28 01:49:33;;;;;;;19.53;10.37;;;7.30;99.90;;;;;;5092224;28;20959;-46
2022/09/28 01:52:20;;;;;;;11.33;8.80;;;7.30;99.90;;;;;;5091384;28;20516;-46
2022/09/28 01:55:17;;;;;;;19.00;10.03;;;7.20;99.90;;;;;;5086753;28;20964;-46
2022/09/28 01:58:08;;;;;;;10.93;8.67;;;7.20;99.90;;;;;;5076255;28;20949;-46
2022/09/28 02:00:40;;;;;;;15.03;10.03;;;7.20;99.90;;;;;;5068772;28;20932;-46
2022/09/28 02:03:18;;;;;;;16.33;10.20;;;7.10;99.90;;;;;;5086801;28;20901;-46
2022/09/28 02:05:51;;;;;;;16.53;10.13;;;7.10;99.90;;;;;;5072404;28;20745;-46
2022/09/28 02:08:32;;;;;;;12.73;9.93;;;7.00;99.90;;;;;;5080108;28;20564;-46
2022/09/28 02:11:01;;;;;;;14.33;9.90;;;7.00;99.90;;;;;;5081740;28;20522;-46
2022/09/28 02:13:34;;;;;;;13.40;8.80;;;7.00;99.90;;;;;;5074499;28;20436;-47
2022/09/28 02:16:08;;;;;;;15.03;9.20;;;7.00;99.90;;;;;;5073919;28;20419;-46
2022/09/28 02:18:34;;;;;;;16.50;10.00;;;7.00;99.90;;;;;;5082191;28;20486;-46
2022/09/28 02:21:22;;;;;;;11.37;9.30;;;7.00;99.90;;;;;;5083432;28;20432;-46
2022/09/28 02:23:55;;;;;;;14.63;10.07;;;7.00;99.90;;;;;;5083568;28;20833;-46
2022/09/28 02:26:26;;;;;;;14.03;10.00;;;7.00;99.90;;;;;;5084750;28;20918;-46
2022/09/28 02:28:52;;;;;;;12.70;9.50;;;7.00;99.90;;;;;;5091504;28;20410;-47
2022/09/28 02:31:18;;;;;;;15.13;10.77;;;7.00;99.90;;;;;;5091975;28;20419;-47
2022/09/28 02:33:45;;;;;;;18.90;10.87;;;7.10;99.90;;;;;;5091490;28;20650;-46
2022/09/28 02:36:10;;;;;;;15.30;10.03;;;7.10;99.90;;;;;;5091810;28;20600;-46
2022/09/28 02:38:37;;;;;;;13.83;10.07;;;7.10;99.90;;;;;;5092219;28;20570;-47
2022/09/28 02:41:25;;;;;;;15.90;11.83;;;7.20;99.90;;;;;;5101228;28;20197;-47
2022/09/28 02:44:24;;;;;;;16.87;9.27;;;7.20;99.90;;;;;;5090100;28;20521;-47
2022/09/28 02:47:06;;;;;;;14.87;10.00;;;7.20;99.90;;;;;;5085726;28;20447;-46
2022/09/28 02:49:31;;;;;;;14.97;9.10;;;7.20;99.90;;;;;;5088006;28;20585;-47
2022/09/28 02:52:21;;;;;;;14.70;11.20;;;7.20;99.90;;;;;;5091656;28;21036;-46
2022/09/28 02:55:25;;;;;;;15.00;10.30;;;7.20;99.90;;;;;;5090883;28;20521;-46
2022/09/28 02:58:02;;;;;;;14.23;10.80;;;7.20;99.90;;;;;;5079911;28;21257;-46
2022/09/28 03:00:31;;;;;;;16.33;11.83;;;7.20;99.90;;;;;;5080059;28;20508;-46
2022/09/28 03:03:26;;;;;;;18.67;10.40;;;7.20;99.90;;;;;;5079282;28;20445;-46
2022/09/28 03:06:22;;;;;;;18.90;11.80;;;7.20;99.90;;;;;;5066439;28;20657;-46
2022/09/28 03:08:56;;;;;;;14.10;10.13;;;7.20;99.90;;;;;;5079144;28;20435;-46
2022/09/28 03:11:29;;;;;;;16.30;11.00;;;7.20;99.90;;;;;;5080422;28;20438;-46
2022/09/28 03:13:55;;;;;;;23.30;11.97;;;7.20;99.90;;;;;;5079209;28;20443;-46
2022/09/28 03:16:21;;;;;;;22.00;12.10;;;7.20;99.90;;;;;;5079452;28;20451;-46
2022/09/28 03:18:47;;;;;;;15.50;10.53;;;7.10;99.90;;;;;;5079483;28;20465;-46
2022/09/28 03:21:14;;;;;;;18.00;11.97;;;7.10;99.90;;;;;;5085844;28;20192;-46
2022/09/28 03:23:40;;;;;;;21.53;12.00;;;7.10;99.90;;;;;;5091226;28;20197;-46
2022/09/28 03:26:13;;;;;;;18.47;11.10;;;7.10;99.90;;;;;;5090227;28;20442;-47
2022/09/28 03:28:39;;;;;;;17.60;11.73;;;7.10;99.90;;;;;;5091639;28;20932;-47
2022/09/28 03:31:05;;;;;;;17.00;11.07;;;7.10;99.90;;;;;;5090219;28;20474;-46
2022/09/28 03:33:31;;;;;;;18.20;11.47;;;7.10;99.90;;;;;;5090605;28;21201;-46
2022/09/28 03:35:56;;;;;;;19.57;10.23;;;7.00;99.90;;;;;;5089547;28;20526;-46
2022/09/28 03:38:22;;;;;;;24.10;11.90;;;6.90;99.90;;;;;;5090331;28;20591;-47
2022/09/28 03:40:55;;;;;;;18.90;11.20;;;6.90;99.90;;;;;;5089647;28;20196;-47
2022/09/28 03:43:22;;;;;;;19.77;12.60;;;6.90;99.90;;;;;;5090851;28;20733;-46
2022/09/28 03:46:00;;;;;;;21.83;11.63;;;6.90;99.90;;;;;;5090449;28;20463;-46
2022/09/28 03:48:28;;;;;;;18.30;12.57;;;6.90;99.90;;;;;;5090434;28;21060;-46
2022/09/28 03:50:55;;;;;;;20.97;12.50;;;6.90;99.90;;;;;;5089825;28;20524;-46
2022/09/28 03:53:21;;;;;;;17.73;12.30;;;6.90;99.90;;;;;;5090664;28;20782;-46
2022/09/28 03:55:47;;;;;;;20.63;12.63;;;6.90;99.90;;;;;;5083297;28;20443;-47
2022/09/28 03:58:13;;;;;;;20.30;13.33;;;6.90;99.90;;;;;;5089786;28;20466;-47
2022/09/28 04:00:39;;;;;;;20.30;11.90;;;6.90;99.90;;;;;;5089495;28;20462;-47
2022/09/28 04:03:04;;;;;;;22.73;14.33;;;6.90;99.90;;;;;;5091146;28;20230;-46
2022/09/28 04:05:30;;;;;;;22.37;14.33;;;6.80;99.90;;;;;;5088419;28;20518;-52
2022/09/28 04:07:56;;;;;;;29.00;14.30;;;6.90;99.90;;;;;;5090445;28;20284;-47
2022/09/28 04:10:22;;;;;;;22.20;14.73;;;6.90;99.90;;;;;;5086680;28;20196;-47
2022/09/28 04:12:49;;;;;;;22.60;14.30;;;6.90;99.90;;;;;;5090943;28;20423;-46
2022/09/28 04:15:15;;;;;;;29.67;16.40;;;6.90;99.90;;;;;;5090198;28;20446;-47
2022/09/28 04:17:41;;;;;;;34.63;17.23;;;6.80;99.90;;;;;;5090182;28;20496;-46
2022/09/28 04:20:07;;;;;;;31.37;17.90;;;6.80;99.90;;;;;;5088965;28;20624;-46
2022/09/28 04:22:36;;;;;;;32.60;17.70;;;6.80;99.90;;;;;;5091390;28;20836;-47
2022/09/28 04:25:02;;;;;;;26.70;16.43;;;6.80;99.90;;;;;;5088448;28;20434;-47
2022/09/28 04:30:12;;;;;;;30.57;17.17;;;6.80;99.90;;;;;;5093666;28;20495;-46
2022/09/28 04:32:38;;;;;;;31.50;18.47;;;6.80;99.90;;;;;;5094759;28;20419;-46
2022/09/28 04:35:04;;;;;;;29.90;17.00;;;6.80;99.90;;;;;;5091956;28;20189;-46
2022/09/28 04:37:30;;;;;;;27.47;17.50;;;6.80;99.90;;;;;;5093583;28;20226;-46
2022/09/28 04:39:56;;;;;;;30.10;17.03;;;6.80;99.90;;;;;;5091114;28;20442;-47
2022/09/28 04:42:21;;;;;;;29.63;18.10;;;6.70;99.90;;;;;;5094033;28;20181;-46
2022/09/28 04:44:47;;;;;;;27.53;17.00;;;6.70;99.90;;;;;;5093062;28;20824;-46
2022/09/28 04:47:12;;;;;;;32.67;18.57;;;6.70;99.90;;;;;;5093117;28;20192;-46
2022/09/28 04:49:38;;;;;;;35.43;18.33;;;6.70;99.90;;;;;;5084320;28;20185;-47
2022/09/28 04:52:05;;;;;;;31.70;18.07;;;6.80;1.00;;;;;;5088273;28;20237;-46
2022/09/28 04:54:30;;;;;;;32.17;19.23;;;6.80;1.00;;;;;;5093389;28;20704;-46
2022/09/28 04:56:57;;;;;;;32.90;19.43;;;6.80;1.00;;;;;;5092259;28;20462;-46
2022/09/28 04:59:23;;;;;;;31.40;17.73;;;6.70;1.00;;;;;;5093083;28;20220;-46
2022/09/28 05:01:48;;;;;;;30.90;17.87;;;6.70;1.00;;;;;;5092854;28;20547;-47
2022/09/28 05:04:14;;;;;;;26.50;16.20;;;6.70;1.00;;;;;;5092837;28;20655;-47
2022/09/28 05:06:39;;;;;;;32.80;18.10;;;6.70;1.00;;;;;;5091589;28;20212;-47
2022/09/28 05:09:06;;;;;;;31.97;18.80;;;6.70;1.00;;;;;;5093169;28;20228;-47
2022/09/28 05:11:31;;;;;;;29.70;17.60;;;6.70;1.00;;;;;;5092776;28;20258;-46
2022/09/28 05:13:57;;;;;;;31.77;18.97;;;6.70;1.00;;;;;;5091110;28;20442;-47
2022/09/28 05:16:24;;;;;;;32.27;18.77;;;6.70;1.00;;;;;;5066050;28;20224;-46
2022/09/28 05:18:54;;;;;;;38.00;20.00;;;6.70;1.00;;;;;;5086877;28;20216;-46
2022/09/28 05:21:19;;;;;;;34.87;19.23;;;6.70;1.00;;;;;;5093901;28;20458;-46
2022/09/28 05:23:46;;;;;;;29.93;17.43;;;6.70;1.00;;;;;;5092342;28;20489;-47
2022/09/28 05:26:12;;;;;;;31.57;18.73;;;6.70;1.00;;;;;;5092324;28;20225;-47
2022/09/28 05:28:37;;;;;;;29.97;18.30;;;6.60;1.00;;;;;;5092482;28;20827;-56
2022/09/28 05:31:04;;;;;;;35.87;19.37;;;6.60;1.00;;;;;;5093676;28;20480;-47
2022/09/28 05:33:31;;;;;;;32.37;18.10;;;6.50;1.00;;;;;;5093303;28;20204;-48
2022/09/28 05:35:57;;;;;;;31.27;18.10;;;6.60;1.00;;;;;;5075179;28;20486;-47
2022/09/28 05:38:23;;;;;;;34.13;17.97;;;6.50;1.00;;;;;;5088669;28;20466;-47
2022/09/28 05:40:49;;;;;;;35.90;18.80;;;6.50;1.00;;;;;;5092514;28;20861;-48
2022/09/28 05:43:15;;;;;;;31.83;18.87;;;6.60;1.00;;;;;;5091805;28;20467;-48
2022/09/28 05:45:41;;;;;;;39.63;21.20;;;6.60;1.00;;;;;;5092587;28;20260;-53
2022/09/28 05:48:06;;;;;;;38.40;19.53;;;6.60;1.00;;;;;;5091681;28;20597;-48
2022/09/28 05:50:32;;;;;;;52.07;25.63;;;6.70;1.00;;;;;;5096842;28;20297;-48
2022/09/28 05:53:03;;;;;;;40.40;20.87;;;6.80;1.00;;;;;;5093202;28;20238;-48
2022/09/28 05:55:29;;;;;;;47.07;21.07;;;6.80;1.00;;;;;;5094474;28;20292;-48
2022/09/28 05:58:04;;;;;;;50.90;22.10;;;6.90;1.00;;;;;;5089901;28;20549;-48
2022/09/28 06:00:31;;;;;;;68.13;26.70;;;6.90;1.00;;;;;;5090142;28;20197;-48
2022/09/28 06:02:56;;;;;;;66.73;24.93;;;6.90;1.00;;;;;;5091615;28;20427;-48
2022/09/28 06:05:23;;;;;;;62.80;27.23;;;7.00;1.00;;;;;;5090713;28;20427;-48
2022/09/28 06:07:49;;;;;;;66.43;27.43;;;7.00;1.00;;;;;;5089709;28;20289;-49
2022/09/28 06:10:14;;;;;;;66.20;28.43;;;7.00;1.00;;;;;;5091251;28;20423;-48
2022/09/28 06:12:41;;;;;;;59.70;26.53;;;7.00;1.00;;;;;;5089971;28;20262;-48
2022/09/28 06:15:07;;;;;;;70.80;27.53;;;7.00;1.00;;;;;;5092229;28;20211;-52
2022/09/28 06:17:32;;;;;;;71.93;29.00;;;7.10;1.00;;;;;;5091613;28;20498;-48
2022/09/28 06:19:58;;;;;;;66.87;29.23;;;7.10;1.00;;;;;;5092519;28;20466;-48
2022/09/28 06:22:23;;;;;;;64.20;29.30;;;7.10;1.00;;;;;;5091428;28;20188;-47
2022/09/28 06:24:49;;;;;;;82.00;31.43;;;7.20;1.00;;;;;;5090639;28;20203;-44
2022/09/28 06:27:15;;;;;;;64.37;27.80;;;7.20;1.00;;;;;;5090185;28;20193;-44
2022/09/28 06:29:40;;;;;;;79.00;28.50;;;7.30;1.00;;;;;;5091939;28;20189;-44
2022/09/28 06:32:06;;;;;;;76.50;29.77;;;7.40;1.00;;;;;;5089136;28;20196;-45
2022/09/28 06:34:32;;;;;;;63.40;28.20;;;7.50;1.00;;;;;;5090152;28;20276;-47
2022/09/28 06:36:57;;;;;;;79.70;31.00;;;7.60;1.00;;;;;;5088663;28;20519;-47
2022/09/28 06:39:23;;;;;;;79.10;30.97;;;7.60;1.00;;;;;;5081515;28;21893;-44
2022/09/28 06:41:48;;;;;;;78.70;33.13;;;7.60;1.00;;;;;;5079032;28;20540;-44
2022/09/28 06:44:14;;;;;;;72.90;31.03;;;7.70;1.00;;;;;;5086803;28;20198;-46
2022/09/28 06:46:39;;;;;;;68.07;31.90;;;7.80;1.00;;;;;;5082219;28;20553;-47
2022/09/28 06:49:08;;;;;;;77.47;33.60;;;7.90;1.00;;;;;;5082912;28;20908;-47
2022/09/28 06:51:34;;;;;;;68.63;32.93;;;8.00;1.00;;;;;;5082707;28;20284;-47
2022/09/28 06:54:00;;;;;;;67.47;32.70;;;8.00;1.00;;;;;;5082825;28;20458;-47
2022/09/28 06:56:25;;;;;;;80.37;33.23;;;8.00;1.00;;;;;;5080990;28;20448;-47
2022/09/28 06:58:51;;;;;;;69.50;34.13;;;8.00;1.00;;;;;;5088894;28;20224;-47
2022/09/28 07:01:16;;;;;;;71.97;34.73;;;8.20;1.00;;;;;;5089300;28;20219;-48
2022/09/28 07:03:42;;;;;;;64.80;32.23;;;8.20;1.00;;;;;;5088923;28;20600;-47
2022/09/28 07:06:10;;;;;;;63.20;32.17;;;8.30;1.00;;;;;;5089658;28;20257;-47
2022/09/28 07:08:36;;;;;;;70.47;32.53;;;8.50;1.00;;;;;;5089082;28;20643;-47
2022/09/28 07:11:05;;;;;;;54.50;29.07;;;8.50;1.00;;;;;;5090206;28;20454;-46
2022/09/28 07:13:31;;;;;;;65.53;30.57;;;8.50;1.00;;;;;;5088750;28;20199;-47
2022/09/28 07:15:58;;;;;;;63.00;30.97;;;8.50;1.00;;;;;;5091140;28;20435;-44
2022/09/28 07:18:25;;;;;;;57.73;29.80;;;8.40;99.90;;;;;;5089258;28;20260;-44
2022/09/28 07:20:51;;;;;;;62.67;30.23;;;8.50;99.90;;;;;;5090585;28;20496;-47
2022/09/28 07:23:17;;;;;;;54.60;28.97;;;8.60;99.90;;;;;;5089271;28;20462;-47
2022/09/28 07:25:49;;;;;;;49.97;27.23;;;8.70;99.90;;;;;;5086788;28;20577;-46
2022/09/28 07:28:15;;;;;;;58.00;30.50;;;8.80;99.90;;;;;;5089295;28;20528;-47
2022/09/28 07:30:42;;;;;;;47.20;26.40;;;8.90;99.90;;;;;;5090283;28;20625;-46
2022/09/28 07:33:11;;;;;;;53.67;27.33;;;8.90;99.90;;;;;;5087158;28;20450;-46
2022/09/28 07:35:38;;;;;;;56.60;28.30;;;9.00;99.90;;;;;;5087583;28;20450;-48
2022/09/28 07:38:05;;;;;;;50.30;27.93;;;9.30;99.90;;;;;;5053924;28;20467;-47
2022/09/28 07:43:19;;;;;;;49.37;25.60;;;9.30;40.30;;;;;;5084294;28;20541;-46
2022/09/28 07:45:46;;;;;;;47.97;26.00;;;9.40;1.00;;;;;;5090438;28;20447;-46
2022/09/28 07:48:14;;;;;;;50.70;26.90;;;9.40;1.00;;;;;;5087555;28;20439;-46
2022/09/28 07:50:41;;;;;;;45.87;24.50;;;9.40;1.00;;;;;;5087954;28;20486;-46
2022/09/28 07:53:07;;;;;;;48.80;25.60;;;9.70;1.00;;;;;;5089697;28;20439;-46
2022/09/28 07:55:32;;;;;;;41.37;24.90;;;10.10;1.00;;;;;;5088090;28;20924;-46
2022/09/28 07:57:59;;;;;;;48.83;25.37;;;10.50;1.00;;;;;;5088071;28;20518;-46
2022/09/28 08:00:31;;;;;;;40.40;22.90;;;10.70;1.00;;;;;;5092770;28;20216;-46
2022/09/28 08:03:00;;;;;;;44.03;24.67;;;10.80;1.00;;;;;;5093643;28;20450;-46
2022/09/28 08:05:30;;;;;;;46.20;25.50;;;10.90;99.90;;;;;;5094110;28;20435;-45
2022/09/28 08:07:58;;;;;;;41.87;23.90;;;10.80;1.00;;;;;;5093355;28;20494;-46
2022/09/28 08:10:25;;;;;;;35.70;20.97;;;10.80;99.90;;;;;;5094194;28;20430;-46
2022/09/28 08:13:00;;;;;;;38.93;21.90;;;10.90;28.50;;;;;;5093952;28;20445;-46
2022/09/28 08:15:26;;;;;;;42.90;24.40;;;11.20;99.90;;;;;;5093930;28;20438;-45
2022/09/28 08:17:51;;;;;;;38.90;22.73;;;11.70;74.70;;;;;;5093444;28;20962;-45
2022/09/28 08:23:07;;;;;;;34.50;21.23;;;11.90;1.00;;;;;;5094906;28;20204;-45
2022/09/28 08:25:33;;;;;;;36.37;21.03;;;11.80;1.00;;;;;;5094326;28;20422;-46
2022/09/28 08:27:59;;;;;;;39.57;24.00;;;11.70;99.90;;;;;;5093098;28;20496;-46
2022/09/28 08:30:26;;;;;;;35.33;20.27;;;11.60;99.90;;;;;;5080526;28;20439;-45
2022/09/28 08:32:51;;;;;;;37.97;22.30;;;11.60;99.90;;;;;;5093750;28;20454;-46
2022/09/28 08:35:17;;;;;;;38.73;20.90;;;11.60;99.90;;;;;;5093094;28;20445;-46
2022/09/28 08:37:48;;;;;;;35.10;20.37;;;11.70;1.00;;;;;;5092153;28;20212;-45
2022/09/28 08:40:25;;;;;;;37.07;21.27;;;11.70;66.10;;;;;;5090554;28;20279;-46
2022/09/28 08:42:56;;;;;;;36.80;22.80;;;11.50;1.00;;;;;;5093374;28;20434;-46
2022/09/28 08:45:26;;;;;;;43.40;22.60;;;11.40;1.00;;;;;;5092640;28;20446;-45
2022/09/28 08:50:56;;;;;;;39.23;22.50;;;11.20;99.90;;;;;;5073831;28;20566;-46
2022/09/28 08:53:43;;;;;;;34.13;21.03;;;11.20;1.00;;;;;;5085523;28;20439;-46
2022/09/28 08:56:23;;;;;;;47.50;21.90;;;10.90;99.90;;;;;;5093244;28;20802;-46
2022/09/28 08:58:57;;;;;;;39.60;21.87;;;10.90;99.90;;;;;;5089101;28;20488;-46
2022/09/28 09:01:27;;;;;;;41.77;20.77;;;10.90;56.00;;;;;;5072635;28;20430;-46
2022/09/28 09:03:52;;;;;;;38.90;21.97;;;10.90;99.90;;;;;;5093284;28;20501;-46
2022/09/28 09:06:36;;;;;;;49.87;23.40;;;10.90;99.90;;;;;;5089786;28;20416;-46
2022/09/28 09:09:11;;;;;;;36.07;21.63;;;11.10;1.00;;;;;;5091035;28;20201;-46
2022/09/28 09:11:37;;;;;;;43.07;23.83;;;11.20;1.00;;;;;;5089306;28;20493;-45
2022/09/28 09:14:36;;;;;;;43.60;23.50;;;11.20;55.30;;;;;;5090933;28;20687;-46
2022/09/28 09:17:12;;;;;;;47.97;23.73;;;11.20;99.90;;;;;;5093915;28;20197;-46
2022/09/28 09:20:15;;;;;;;46.83;24.53;;;11.50;1.00;;;;;;5076238;28;20524;-46
2022/09/28 09:22:58;;;;;;;39.53;23.03;;;11.70;99.90;;;;;;5092859;28;20415;-45
2022/09/28 09:25:48;;;;;;;39.03;21.70;;;11.80;20.70;;;;;;5087747;28;20851;-45
2022/09/28 09:28:31;;;;;;;37.73;21.30;;;12.00;98.00;;;;;;5083890;28;20431;-45
2022/09/28 09:31:07;;;;;;;35.33;20.30;;;12.30;99.90;;;;;;5087372;28;20419;-45
2022/09/28 09:33:43;;;;;;;38.73;21.63;;;12.40;1.00;;;;;;5090729;28;20435;-46
2022/09/28 09:36:26;;;;;;;35.20;20.10;;;12.80;99.90;;;;;;5091004;28;20994;-46
2022/09/28 09:39:30;;;;;;;38.40;20.33;;;13.00;1.00;;;;;;5086970;28;20516;-46
2022/09/28 09:41:56;;;;;;;39.67;19.60;;;13.30;99.90;;;;;;5090191;28;20587;-45
2022/09/28 09:44:43;;;;;;;35.07;20.50;;;13.50;1.00;;;;;;5092267;28;20431;-46
2022/09/28 09:47:30;;;;;;;30.87;19.00;;;13.50;1.00;;;;;;5092867;28;20199;-46
2022/09/28 09:50:01;;;;;;;33.33;19.43;;;13.60;1.00;;;;;;5090628;28;20423;-46
2022/09/28 09:52:53;;;;;;;31.80;19.30;;;13.70;1.00;;;;;;5091861;28;20467;-45
2022/09/28 09:55:33;;;;;;;31.90;17.57;;;13.50;99.90;;;;;;5075981;28;20487;-46
2022/09/28 09:58:03;;;;;;;29.53;18.17;;;13.50;1.00;;;;;;5089294;28;20525;-46
2022/09/28 10:00:29;;;;;;;26.60;15.50;;;13.60;1.00;;;;;;5074768;28;20424;-46
2022/09/28 10:02:58;;;;;;;22.20;13.70;;;13.60;1.00;;;;;;5086520;28;20807;-46
2022/09/28 10:05:28;;;;;;;22.10;13.43;;;13.50;1.00;;;;;;5090209;28;20518;-44
2022/09/28 10:08:01;;;;;;;22.67;13.73;;;13.30;23.40;;;;;;5091902;28;20434;-44
2022/09/28 10:10:32;;;;;;;21.87;13.27;;;13.00;99.90;;;;;;5091327;28;20447;-43
2022/09/28 10:12:57;;;;;;;24.17;14.40;;;12.70;51.10;;;;;;5090969;28;20466;-44
2022/09/28 10:15:28;;;;;;;19.50;11.77;;;12.50;99.90;;;;;;5091717;28;20462;-44
2022/09/28 10:17:56;;;;;;;26.27;11.93;;;12.50;91.50;;;;;;5091631;28;20228;-44
2022/09/28 10:20:24;;;;;;;21.93;10.83;;;12.80;1.00;;;;;;5089957;28;20450;-44
2022/09/28 10:22:50;;;;;;;17.23;9.33;;;13.20;1.00;;;;;;5091578;28;20509;-45
2022/09/28 10:25:17;;;;;;;19.00;10.40;;;13.70;1.00;;;;;;5091897;28;20402;-44
2022/09/28 10:27:45;;;;;;;14.50;7.63;;;14.50;1.00;;;;;;5091840;28;21049;-44
2022/09/28 10:30:17;;;;;;;8.67;5.50;;;14.70;1.00;;;;;;5091298;28;20541;-44
2022/09/28 10:32:46;;;;;;;8.70;5.27;;;14.50;1.00;;;;;;5099243;28;20433;-44
2022/09/28 10:35:17;;;;;;;8.10;5.70;;;15.20;1.00;;;;;;5091578;28;20435;-49
2022/09/28 10:38:13;;;;;;;9.20;5.40;;;16.60;1.00;;;;;;5090616;28;20471;-44
2022/09/28 10:41:12;;;;;;;4.43;3.83;;;17.80;1.00;;;;;;5064264;28;20538;-44
2022/09/28 10:44:04;;;;;;;7.87;6.33;;;18.60;1.00;;;;;;5077255;28;20447;-44
2022/09/28 10:46:34;;;;;;;10.00;5.80;;;17.90;1.00;;;;;;5090076;28;20411;-44
2022/09/28 10:49:05;;;;;;;11.03;6.03;;;18.00;1.00;;;;;;5090160;28;20465;-44
2022/09/28 10:51:46;;;;;;;7.77;6.37;;;18.90;1.00;;;;;;5089695;28;20517;-45
2022/09/28 10:54:32;;;;;;;11.93;6.40;;;20.00;1.00;;;;;;5080451;28;20426;-45
2022/09/28 10:56:58;;;;;;;7.53;5.43;;;21.00;1.00;;;;;;5090727;28;20461;-45
2022/09/28 10:59:30;;;;;;;7.37;5.40;;;21.70;1.00;;;;;;5090569;28;20471;-45
2022/09/28 11:02:17;;;;;;;6.30;4.87;;;22.10;1.00;;;;;;5090301;28;20197;-45
2022/09/28 11:05:00;;;;;;;7.17;5.77;;;22.50;1.00;;;;;;5089871;28;20443;-45
2022/09/28 11:07:31;;;;;;;7.90;6.33;;;22.90;1.00;;;;;;5079180;28;20423;-45
2022/09/28 11:09:58;;;;;;;5.67;5.03;;;22.80;99.90;;;;;;5089147;28;20432;-45
2022/09/28 11:12:34;;;;;;;5.73;5.13;;;22.70;99.90;;;;;;5090476;28;20436;-45
2022/09/28 11:15:06;;;;;;;5.67;4.20;;;22.70;1.00;;;;;;5087418;28;20965;-45
2022/09/28 11:17:37;;;;;;;3.70;3.40;;;22.60;99.90;;;;;;5091449;28;20422;-45
2022/09/28 11:20:24;;;;;;;6.10;4.30;;;23.20;99.90;;;;;;5089928;28;20507;-45
2022/09/28 11:22:55;;;;;;;5.83;4.97;;;23.40;99.90;;;;;;5089763;28;20553;-45
2022/09/28 11:25:24;;;;;;;8.37;4.60;;;23.60;99.90;;;;;;5086107;28;20812;-45
2022/09/28 11:27:49;;;;;;;5.80;4.00;;;23.40;99.90;;;;;;5090929;28;20431;-46
2022/09/28 11:30:39;;;;;;;6.30;3.83;;;23.20;99.90;;;;;;5091062;28;20442;-47
2022/09/28 11:33:21;;;;;;;6.10;3.50;;;23.00;99.90;;;;;;5090925;28;20189;-46
2022/09/28 11:36:17;;;;;;;6.90;3.90;;;23.00;99.90;;;;;;5091050;28;20977;-46
2022/09/28 11:39:10;;;;;;;4.93;3.67;;;23.30;99.90;;;;;;5091422;28;20458;-46
2022/09/28 11:42:17;;;;;;;4.03;2.90;;;23.20;99.90;;;;;;5076625;28;20426;-48
2022/09/28 11:44:48;;;;;;;7.10;3.30;;;23.40;99.90;;;;;;5077437;28;20466;-46
2022/09/28 11:47:25;;;;;;;4.20;3.63;;;23.60;99.90;;;;;;5090484;28;20427;-51
2022/09/28 11:50:02;;;;;;;3.97;3.40;;;23.30;99.90;;;;;;5090019;28;20448;-46
2022/09/28 11:52:39;;;;;;;2.97;2.73;;;23.50;99.90;;;;;;5089723;28;20540;-46
2022/09/28 11:55:16;;;;;;;3.87;2.80;;;23.50;99.90;;;;;;5090737;28;20422;-46
2022/09/28 11:57:47;;;;;;;4.03;2.73;;;23.30;99.90;;;;;;5090592;28;21195;-46
2022/09/28 12:00:18;;;;;;;6.67;3.50;;;23.50;99.90;;;;;;5090924;28;20950;-46
2022/09/28 12:03:09;;;;;;;4.30;3.70;;;23.10;99.90;;;;;;5089684;28;20939;-46
2022/09/28 12:05:40;;;;;;;3.60;3.00;;;23.00;99.90;;;;;;5100561;28;21054;-46
2022/09/28 12:08:33;;;;;;;5.20;3.63;;;23.00;99.90;;;;;;5088586;28;20508;-47
2022/09/28 12:11:14;;;;;;;5.53;3.80;;;22.70;99.90;;;;;;5088998;28;20521;-46
2022/09/28 12:13:46;;;;;;;5.90;4.00;;;22.50;99.90;;;;;;5088911;28;20457;-46
2022/09/28 12:16:30;;;;;;;5.30;3.20;;;21.60;99.90;;;;;;5089489;28;20427;-46
2022/09/28 12:19:06;;;;;;;3.97;3.40;;;21.00;99.90;;;;;;5089992;28;20469;-46
2022/09/28 12:21:35;;;;;;;4.60;2.80;;;21.00;99.90;;;;;;5089953;28;20499;-46
2022/09/28 12:24:12;;;;;;;6.13;2.87;;;21.70;99.90;;;;;;5090207;28;20435;-46
2022/09/28 12:26:50;;;;;;;4.60;3.53;;;21.90;99.90;;;;;;5089496;28;20426;-46
2022/09/28 12:29:31;;;;;;;2.87;2.57;;;21.80;99.90;;;;;;5089333;28;20454;-48
2022/09/28 12:32:21;;;;;;;3.63;2.53;;;22.10;99.90;;;;;;5080563;28;20766;-47
2022/09/28 12:34:47;;;;;;;3.43;3.13;;;22.10;99.90;;;;;;5089362;28;20450;-46
2022/09/28 12:37:37;;;;;;;3.47;2.90;;;21.80;99.90;;;;;;5090258;28;20438;-46
2022/09/28 12:40:31;;;;;;;3.70;2.30;;;21.90;99.90;;;;;;5101083;28;20638;-46
2022/09/28 12:43:27;;;;;;;3.50;2.50;;;22.30;99.90;;;;;;5086685;28;20434;-46
2022/09/28 12:46:09;;;;;;;2.60;2.40;;;22.50;99.90;;;;;;5081240;28;20429;-46
2022/09/28 12:49:02;;;;;;;3.43;2.27;;;22.40;99.90;;;;;;5094517;28;20522;-46
2022/09/28 12:51:53;;;;;;;2.77;2.40;;;21.90;99.90;;;;;;5092973;28;20470;-46
2022/09/28 12:54:33;;;;;;;5.60;2.33;;;21.50;99.90;;;;;;5093265;28;20431;-47
2022/09/28 12:57:33;;;;;;;3.27;2.40;;;22.00;99.90;;;;;;5092896;28;20523;-46
2022/09/28 13:00:10;;;;;;;4.07;3.20;;;21.20;99.90;;;;;;5073378;28;20446;-46
2022/09/28 13:02:45;;;;;;;2.93;2.30;;;20.20;99.90;;;;;;5093713;28;20467;-50
2022/09/28 13:06:03;;;;;;;3.70;2.40;;;20.70;99.90;;;;;;5092749;28;20427;-46
2022/09/28 13:08:45;;;;;;;3.43;2.27;;;21.60;99.90;;;;;;5075252;28;20423;-50
2022/09/28 13:11:17;;;;;;;3.97;2.30;;;21.90;99.90;;;;;;5092960;28;20503;-46
2022/09/28 13:14:16;;;;;;;3.13;2.40;;;22.20;99.90;;;;;;5093351;28;20818;-46
2022/09/28 13:17:09;;;;;;;5.47;2.80;;;22.60;99.90;;;;;;5093856;28;20954;-46
2022/09/28 13:20:02;;;;;;;2.53;1.90;;;22.20;99.90;;;;;;5092278;28;20458;-46
2022/09/28 13:23:10;;;;;;;2.43;1.50;;;20.80;99.90;;;;;;5091600;28;20439;-47